Campanya meteocatpedra

Dades de l'estació automàtica Vilanova de Meià

?
?
Resum diari 21:30 TU
Dades diàries de l'estació meteorològica
Temperatura mitjana 23.6 °C
Temperatura màxima 30.4 °C 14:39 TU
Temperatura mínima 16.7 °C 4:25 TU
Humitat relativa mitjana 61%
Precipitació acumulada 0.0 mm
Ratxa màxima del vent (10 m) 24.1 km/h - 203º 14:50 TU
Pressió atmosfèrica mitjana 1015.3 hPa

El tram horari està expressat en Temps Universal (TU). Cal sumar una hora en horari d'hivern i dues en horari d'estiu per passar a l'hora oficial.

Vilanova de Meià

Metadades estació meteorol´gica
Municipi Vilanova de Meià
Comarca Noguera
Altitud 594 m
Data alta 01.04.1996
Estat actual Operativa
Dades de període
Període
TU
TM
°C
TX
°C
TN
°C
HRM
%
PPT
mm
VVM (10 m)
km/h
DVM (10 m)
graus
VVX (10 m)
km/h
PM
hPa
00:00 - 00:30 20.0 20.2 19.7 74 0.0 0.4 8 2.9 1018.1
00:30 - 01:00 19.6 19.7 19.0 75 0.0 1.1 43 4.7 1018.2
01:00 - 01:30 18.8 19.3 18.4 75 0.0 1.8 51 6.1 1018.3
01:30 - 02:00 18.1 18.3 17.9 74 0.0 1.8 39 6.8 1018.3
02:00 - 02:30 17.7 17.9 17.6 73 0.0 1.1 29 7.2 1018.2
02:30 - 03:00 17.5 17.6 17.4 74 0.0 1.4 25 7.6 1018.0
03:00 - 03:30 17.3 17.5 17.2 74 0.0 2.5 23 8.3 1018.0
03:30 - 04:00 17.3 17.4 17.2 75 0.0 2.9 26 7.6 1018.0
04:00 - 04:30 17.0 17.2 16.7 79 0.0 0.7 20 4.3 1018.0
04:30 - 05:00 17.1 17.2 16.8 79 0.0 2.2 25 5.0 1018.0
05:00 - 05:30 17.3 17.9 16.9 79 0.0 1.1 30 5.0 1018.1
05:30 - 06:00 18.5 18.9 18.0 76 0.0 0.7 19 3.6 1017.9
06:00 - 06:30 19.0 19.3 18.6 77 0.0 0.7 38 6.5 1017.6
06:30 - 07:00 19.7 20.5 19.2 78 0.0 1.4 163 4.7 1017.5
07:00 - 07:30 21.3 21.9 20.6 69 0.0 3.6 174 6.8 1017.3
07:30 - 08:00 22.6 23.8 21.5 62 0.0 4.3 160 9.7 1017.0
08:00 - 08:30 23.5 24.9 22.7 58 0.0 5.0 176 13.3 1016.6
08:30 - 09:00 24.7 25.3 23.8 53 0.0 4.7 187 11.9 1016.2
09:00 - 09:30 24.9 25.4 24.4 52 0.0 5.0 177 12.6 1016.0
09:30 - 10:00 26.2 27.6 25.3 49 0.0 5.8 183 17.3 1015.4
10:00 - 10:30 26.7 27.4 25.8 48 0.0 6.1 195 16.6 1015.2
10:30 - 11:00 27.3 28.2 26.2 48 0.0 7.6 193 18.7 1014.8
11:00 - 11:30 27.5 28.1 26.9 48 0.0 7.2 187 16.9 1014.6
11:30 - 12:00 28.2 28.6 27.5 46 0.0 7.2 194 22.0 1014.3
12:00 - 12:30 28.0 28.7 27.5 47 0.0 9.7 182 20.2 1013.9
12:30 - 13:00 28.6 29.5 27.6 46 0.0 7.2 173 17.6 1013.6
13:00 - 13:30 28.0 29.4 27.2 48 0.0 7.9 175 20.9 1013.4
13:30 - 14:00 28.7 29.5 27.1 46 0.0 9.4 199 22.3 1013.0
14:00 - 14:30 28.5 29.4 27.9 46 0.0 9.7 207 23.0 1012.8
14:30 - 15:00 29.7 30.4 28.6 44 0.0 9.4 195 24.1 1012.4
15:00 - 15:30 29.4 30.1 28.6 44 0.0 9.4 198 19.1 1012.2
15:30 - 16:00 29.6 30.2 28.3 44 0.0 9.4 201 20.2 1012.0
16:00 - 16:30 28.2 29.5 27.6 47 0.0 8.3 201 23.8 1012.2
16:30 - 17:00 28.5 29.4 27.6 47 0.0 8.3 189 19.4 1012.0
17:00 - 17:30 28.4 29.2 28.0 45 0.0 10.1 194 22.0 1011.9
17:30 - 18:00 28.1 28.9 27.3 45 0.0 8.6 209 20.5 1012.2
18:00 - 18:30 27.1 27.4 26.3 45 0.0 7.2 204 16.2 1012.5
18:30 - 19:00 25.3 26.2 23.9 52 0.0 2.2 176 10.1 1012.9
19:00 - 19:30 24.3 24.5 24.0 61 0.0 4.7 173 11.9 1013.6
19:30 - 20:00 23.8 24.2 23.2 65 0.0 4.3 153 11.2 1014.1
20:00 - 20:30 22.7 23.2 22.0 70 0.0 4.3 175 12.2 1014.7
20:30 - 21:00 21.3 21.9 20.9 76 0.0 1.4 229 5.0 1015.4
21:00 - 21:30 20.7 20.8 20.3 79 0.0 0.0 69 1.1 1015.8
21:30 - 22:00 20.1 20.3 19.8 81 0.0 0.7 36 2.5 1016.1

Les dades en taronja només han passat un control de qualitat automàtic. Resta pendent la seva validació definitiva.